createdAt,value
2019-02-19T00:00:35.721Z,14.50
2019-02-19T00:03:05.393Z,14.18
2019-02-19T00:05:35.445Z,14.60
2019-02-19T00:08:04.904Z,14.25
2019-02-19T00:10:33.475Z,15.60
2019-02-19T00:13:01.921Z,15.00
2019-02-19T00:15:30.715Z,14.85
2019-02-19T00:18:18.505Z,15.70
2019-02-19T00:20:49.377Z,14.80
2019-02-19T00:23:17.838Z,15.32
2019-02-19T00:25:47.050Z,14.80
2019-02-19T00:28:15.527Z,14.28
2019-02-19T00:30:43.980Z,14.03
2019-02-19T00:33:12.440Z,12.98
2019-02-19T00:35:41.822Z,13.58
2019-02-19T00:38:10.382Z,13.10
2019-02-19T00:40:39.959Z,11.63
2019-02-19T00:43:08.452Z,11.95
2019-02-19T00:45:36.969Z,12.25
2019-02-19T00:48:05.584Z,11.45
2019-02-19T00:50:34.088Z,12.88
2019-02-19T00:53:02.537Z,11.97
2019-02-19T00:55:31.130Z,11.03
2019-02-19T00:57:59.699Z,11.48
2019-02-19T01:00:28.205Z,11.22
2019-02-19T01:02:58.301Z,11.45
2019-02-19T01:05:26.778Z,10.50
2019-02-19T01:07:55.311Z,11.35
2019-02-19T01:10:23.770Z,11.35
2019-02-19T01:12:52.302Z,9.95
2019-02-19T01:15:25.451Z,10.65
2019-02-19T01:17:52.071Z,10.55
2019-02-19T01:20:20.570Z,10.28
2019-02-19T01:22:49.017Z,9.55
2019-02-19T01:25:17.468Z,10.23
2019-02-19T01:27:47.522Z,11.08
2019-02-19T01:30:16.030Z,10.70
2019-02-19T01:32:44.482Z,9.13
2019-02-19T01:35:14.611Z,9.10
2019-02-19T01:37:45.428Z,9.95
2019-02-19T01:40:13.957Z,8.73
2019-02-19T01:42:42.423Z,8.35
2019-02-19T01:45:11.019Z,8.38
2019-02-19T01:47:39.463Z,8.30
2019-02-19T01:50:11.723Z,9.55
2019-02-19T01:52:40.181Z,10.03
2019-02-19T01:55:28.053Z,9.95
2019-02-19T01:57:57.465Z,10.35
2019-02-19T02:00:25.906Z,13.10
2019-02-19T02:02:54.379Z,13.05
2019-02-19T02:05:22.910Z,14.00
2019-02-19T02:07:52.451Z,14.93
2019-02-19T02:10:22.093Z,14.63
2019-02-19T02:12:50.548Z,14.55
2019-02-19T02:15:19.076Z,15.70
2019-02-19T02:17:47.554Z,15.48
2019-02-19T02:20:16.013Z,16.27
2019-02-19T02:22:44.464Z,17.27
2019-02-19T02:25:13.008Z,16.75
2019-02-19T02:27:42.542Z,17.27
2019-02-19T02:30:12.046Z,18.75
2019-02-19T02:32:41.996Z,19.15
2019-02-19T02:35:11.335Z,18.10
2019-02-19T02:37:40.182Z,19.00
2019-02-19T02:40:08.843Z,20.02
2019-02-19T02:42:37.310Z,17.32
2019-02-19T02:45:05.906Z,19.12
2019-02-19T02:47:34.492Z,19.07
2019-02-19T02:50:02.998Z,19.25
2019-02-19T02:52:31.455Z,19.20
2019-02-19T02:54:59.964Z,18.30
2019-02-19T02:57:28.406Z,20.77
2019-02-19T02:59:56.870Z,18.50
2019-02-19T03:02:25.343Z,18.50
2019-02-19T03:04:55.364Z,18.20
2019-02-19T03:07:26.333Z,18.52
2019-02-19T03:09:54.864Z,16.12
2019-02-19T03:12:23.345Z,17.70
2019-02-19T03:14:51.788Z,17.55
2019-02-19T03:17:20.241Z,17.32
2019-02-19T03:19:48.730Z,17.70
2019-02-19T03:22:17.533Z,16.93
2019-02-19T03:24:45.993Z,17.07
2019-02-19T03:27:14.434Z,17.73
2019-02-19T03:29:42.895Z,16.82
2019-02-19T03:32:11.388Z,18.20
2019-02-19T03:34:39.904Z,17.10
2019-02-19T03:37:08.358Z,18.12
2019-02-19T03:39:37.417Z,17.32
2019-02-19T03:42:05.873Z,17.27
2019-02-19T03:44:34.324Z,18.42
2019-02-19T03:47:02.790Z,19.17
2019-02-19T03:49:31.243Z,17.85
2019-02-19T03:51:59.717Z,17.75
2019-02-19T03:54:28.301Z,18.57
2019-02-19T03:56:58.609Z,16.67
2019-02-19T03:59:28.863Z,17.92
2019-02-19T04:01:57.385Z,18.50
2019-02-19T04:04:25.902Z,17.75
2019-02-19T04:06:57.868Z,16.97
2019-02-19T04:09:27.635Z,15.72
2019-02-19T04:11:58.003Z,16.60
2019-02-19T04:14:28.123Z,15.05
2019-02-19T04:16:58.268Z,15.68
2019-02-19T04:19:27.031Z,14.60
2019-02-19T04:21:56.219Z,15.60
2019-02-19T04:24:24.729Z,14.60
2019-02-19T04:26:54.825Z,14.80
2019-02-19T04:29:23.302Z,13.53
2019-02-19T04:31:51.772Z,14.00
2019-02-19T04:34:20.274Z,13.90
2019-02-19T04:36:48.736Z,13.93
2019-02-19T04:39:17.188Z,13.45
2019-02-19T04:41:48.234Z,12.33
2019-02-19T04:44:17.673Z,12.73
2019-02-19T04:46:47.150Z,13.35
2019-02-19T04:49:15.607Z,14.25
2019-02-19T04:51:48.355Z,13.75
2019-02-19T04:54:16.937Z,12.80
2019-02-19T04:56:48.381Z,13.28
2019-02-19T04:59:17.174Z,13.00
2019-02-19T05:01:45.640Z,12.63
2019-02-19T05:04:14.115Z,12.73
2019-02-19T05:06:42.665Z,12.25
2019-02-19T05:09:11.489Z,12.28
2019-02-19T05:11:39.956Z,11.00
2019-02-19T05:14:10.398Z,11.53
2019-02-19T05:16:41.100Z,10.50
2019-02-19T05:19:09.945Z,10.45
2019-02-19T05:21:38.454Z,10.25
2019-02-19T05:24:06.917Z,10.43
2019-02-19T05:26:35.373Z,10.32
2019-02-19T05:29:11.749Z,10.90
2019-02-19T05:31:40.238Z,10.72
2019-02-19T05:34:08.702Z,9.78
2019-02-19T05:36:38.460Z,8.98
2019-02-19T05:39:07.785Z,10.23
2019-02-19T05:41:36.226Z,9.03
2019-02-19T05:44:04.921Z,8.63
2019-02-19T05:46:35.472Z,8.90
2019-02-19T05:49:04.860Z,7.95
2019-02-19T05:51:34.976Z,8.48
2019-02-19T05:54:03.424Z,7.87
2019-02-19T05:56:31.986Z,8.13
2019-02-19T05:59:00.575Z,7.03
2019-02-19T06:01:29.140Z,7.03
2019-02-19T06:03:57.596Z,6.33
2019-02-19T06:06:26.127Z,7.17
2019-02-19T06:08:56.140Z,6.10
2019-02-19T06:11:24.591Z,6.47
2019-02-19T06:13:53.114Z,7.00
2019-02-19T06:16:22.737Z,5.87
2019-02-19T06:18:51.236Z,6.12
2019-02-19T06:21:19.742Z,6.53
2019-02-19T06:23:48.256Z,6.53
2019-02-19T06:26:16.716Z,6.85
2019-02-19T06:28:48.562Z,5.90
2019-02-19T06:31:17.020Z,7.30
2019-02-19T06:33:46.805Z,7.72
2019-02-19T06:36:15.448Z,7.20
2019-02-19T06:38:43.985Z,6.92
2019-02-19T06:41:12.430Z,6.95
2019-02-19T06:43:40.917Z,7.00
2019-02-19T06:46:09.423Z,6.57
2019-02-19T06:48:37.894Z,6.78
2019-02-19T06:51:06.330Z,7.03
2019-02-19T06:53:35.132Z,7.70
2019-02-19T06:56:04.933Z,7.42
2019-02-19T06:58:33.379Z,7.50
2019-02-19T07:01:01.830Z,7.97
2019-02-19T07:03:42.244Z,7.92
2019-02-19T07:06:11.459Z,7.87
2019-02-19T07:08:44.912Z,8.30
2019-02-19T07:13:43.051Z,7.95
2019-02-19T07:16:11.589Z,8.50
2019-02-19T07:18:42.772Z,7.22
2019-02-19T07:21:13.323Z,7.90
2019-02-19T07:23:43.120Z,7.05
2019-02-19T07:26:11.737Z,7.75
2019-02-19T07:28:40.231Z,7.78
2019-02-19T07:31:08.683Z,8.25
2019-02-19T07:33:38.696Z,7.62
2019-02-19T07:36:07.905Z,7.12
2019-02-19T07:38:36.514Z,7.20
2019-02-19T07:41:05.011Z,7.40
2019-02-19T07:43:33.481Z,7.45
2019-02-19T07:46:01.948Z,6.78
2019-02-19T07:48:34.412Z,7.62
2019-02-19T07:51:04.238Z,6.93
2019-02-19T07:53:32.701Z,7.53
2019-02-19T07:56:01.183Z,7.72
2019-02-19T07:58:29.701Z,7.37
2019-02-19T08:00:58.220Z,8.08
2019-02-19T08:03:26.714Z,8.20
2019-02-19T08:05:55.169Z,8.10
2019-02-19T08:08:26.270Z,8.60
2019-02-19T08:10:54.742Z,8.75
2019-02-19T08:13:24.608Z,9.43
2019-02-19T08:15:54.491Z,10.80
2019-02-19T08:18:25.126Z,9.98
2019-02-19T08:20:53.496Z,11.65
2019-02-19T08:23:21.957Z,12.55
2019-02-19T08:25:50.439Z,12.88
2019-02-19T08:28:18.900Z,13.88
2019-02-19T08:30:47.342Z,13.88
2019-02-19T08:33:15.836Z,15.47
2019-02-19T08:35:46.104Z,16.57
2019-02-19T08:38:14.806Z,17.27
2019-02-19T08:40:43.294Z,17.90
2019-02-19T08:43:11.757Z,19.23
2019-02-19T08:45:40.206Z,17.98
2019-02-19T08:48:08.690Z,19.95
2019-02-19T08:50:37.148Z,20.80
2019-02-19T08:53:05.602Z,22.87
2019-02-19T08:55:34.956Z,22.67
2019-02-19T08:58:04.729Z,21.77
2019-02-19T09:00:34.553Z,22.40
2019-02-19T09:03:05.073Z,22.98
2019-02-19T09:05:34.835Z,24.37
2019-02-19T09:08:04.943Z,23.73
2019-02-19T09:10:33.485Z,23.67
2019-02-19T09:13:02.282Z,22.70
2019-02-19T09:15:30.894Z,21.77
2019-02-19T09:17:59.375Z,22.60
2019-02-19T09:20:27.919Z,20.92
2019-02-19T09:22:56.374Z,20.62
2019-02-19T09:25:24.847Z,19.05
2019-02-19T09:27:54.829Z,19.30
2019-02-19T09:30:24.823Z,18.65
2019-02-19T09:32:53.303Z,20.37
2019-02-19T09:35:23.128Z,17.80
2019-02-19T09:37:52.235Z,19.82
2019-02-19T09:40:20.971Z,20.05
2019-02-19T09:42:49.410Z,20.17
2019-02-19T09:45:17.879Z,17.60
2019-02-19T09:47:46.365Z,17.15
2019-02-19T09:50:14.920Z,16.83
2019-02-19T09:52:44.563Z,17.37
2019-02-19T09:55:13.104Z,16.05
2019-02-19T09:57:43.298Z,15.70
2019-02-19T10:00:15.044Z,15.55
2019-02-19T10:02:44.043Z,14.15
2019-02-19T10:05:12.816Z,15.00
2019-02-19T10:07:41.346Z,14.40
2019-02-19T10:10:21.476Z,11.85
2019-02-19T10:12:49.917Z,13.25
2019-02-19T10:15:19.281Z,13.33
2019-02-19T10:17:48.778Z,13.30
2019-02-19T10:20:18.338Z,11.12
2019-02-19T10:22:47.359Z,11.05
2019-02-19T10:25:15.818Z,11.17
2019-02-19T10:27:46.683Z,11.00
2019-02-19T10:30:21.282Z,10.85
2019-02-19T10:32:52.275Z,10.60
2019-02-19T10:35:20.720Z,10.75
2019-02-19T10:37:51.826Z,7.70
2019-02-19T10:40:22.804Z,8.20
2019-02-19T10:42:51.307Z,7.55
2019-02-19T10:45:24.868Z,6.60
2019-02-19T10:47:53.383Z,7.08
2019-02-19T10:50:24.832Z,7.17
2019-02-19T10:52:54.118Z,7.20
2019-02-19T10:55:22.673Z,7.17
2019-02-19T10:57:54.942Z,6.55
2019-02-19T11:00:24.691Z,6.00
2019-02-19T11:02:54.163Z,5.50
2019-02-19T11:05:22.621Z,5.78
2019-02-19T11:07:52.134Z,6.03
2019-02-19T11:10:20.669Z,5.80
2019-02-19T11:12:51.407Z,5.97
2019-02-19T11:15:19.869Z,5.95
2019-02-19T11:17:48.484Z,5.67
2019-02-19T11:20:21.695Z,5.85
2019-02-19T11:22:51.382Z,5.05
2019-02-19T11:25:20.704Z,5.03
2019-02-19T11:27:49.424Z,5.62
2019-02-19T11:30:20.558Z,5.37
2019-02-19T11:32:50.462Z,5.37
2019-02-19T11:35:21.589Z,5.50
2019-02-19T11:38:10.989Z,4.75
2019-02-19T11:40:39.511Z,4.70
2019-02-19T11:43:08.915Z,4.37
2019-02-19T11:45:37.474Z,4.58
2019-02-19T11:48:06.259Z,5.50
2019-02-19T11:50:34.862Z,5.37
2019-02-19T11:53:03.480Z,4.40
2019-02-19T11:55:32.033Z,5.47
2019-02-19T11:58:00.674Z,3.77
2019-02-19T12:00:36.779Z,4.50
2019-02-19T12:03:05.375Z,5.45
2019-02-19T12:05:34.023Z,4.97
2019-02-19T12:08:09.301Z,4.40
2019-02-19T12:10:37.904Z,4.22
2019-02-19T12:13:06.424Z,3.58
2019-02-19T12:15:35.608Z,4.90
2019-02-19T12:18:04.690Z,3.83
2019-02-19T12:20:34.620Z,4.22
2019-02-19T12:23:03.162Z,4.20
2019-02-19T12:25:31.657Z,3.80
2019-02-19T12:28:00.205Z,3.60
2019-02-19T12:30:28.719Z,4.15
2019-02-19T12:32:57.268Z,3.22
2019-02-19T12:35:25.862Z,3.47
2019-02-19T12:37:54.471Z,3.40
2019-02-19T12:40:22.938Z,3.08
2019-02-19T12:42:52.933Z,3.77
2019-02-19T12:45:24.116Z,3.30
2019-02-19T12:47:52.642Z,2.95
2019-02-19T12:50:21.096Z,3.12
2019-02-19T12:52:49.607Z,3.08
2019-02-19T12:55:18.062Z,2.87
2019-02-19T12:57:46.591Z,2.95
2019-02-19T13:00:20.017Z,2.62
2019-02-19T13:02:48.473Z,3.27
2019-02-19T13:05:17.165Z,2.63
2019-02-19T13:07:47.091Z,2.95
2019-02-19T13:10:18.692Z,3.50
2019-02-19T13:12:49.182Z,2.80
2019-02-19T13:15:21.651Z,2.72
2019-02-19T13:17:50.171Z,2.70
2019-02-19T13:20:18.692Z,2.45
2019-02-19T13:22:47.186Z,2.77
2019-02-19T13:25:15.703Z,3.77
2019-02-19T13:27:46.642Z,3.20
2019-02-19T13:30:18.224Z,3.08
2019-02-19T13:32:46.690Z,3.20
2019-02-19T13:35:17.282Z,3.20
2019-02-19T13:37:45.821Z,2.85
2019-02-19T13:40:16.845Z,3.22
2019-02-19T13:42:45.401Z,2.92
2019-02-19T13:45:16.762Z,2.60
2019-02-19T13:47:45.279Z,2.40
2019-02-19T13:50:20.875Z,2.35
2019-02-19T13:53:08.179Z,2.58
2019-02-19T13:55:38.278Z,2.33
2019-02-19T13:58:07.409Z,2.42
2019-02-19T14:00:38.889Z,2.80
2019-02-19T14:03:11.621Z,2.75
2019-02-19T14:05:40.387Z,3.20
2019-02-19T14:08:14.589Z,2.87
2019-02-19T14:10:39.612Z,2.67
2019-02-19T14:13:08.925Z,2.72
2019-02-19T14:15:54.015Z,2.92
2019-02-19T14:18:25.116Z,2.47
2019-02-19T14:20:56.213Z,2.52
2019-02-19T14:23:35.486Z,2.72
2019-02-19T14:26:22.240Z,3.00
2019-02-19T14:28:56.792Z,2.47
2019-02-19T14:31:32.942Z,3.08
2019-02-19T14:34:20.856Z,2.27
2019-02-19T14:36:50.967Z,3.17
2019-02-19T14:39:24.228Z,2.75
2019-02-19T14:41:58.729Z,2.42
2019-02-19T14:44:43.278Z,4.33
2019-02-19T14:47:18.761Z,3.17
2019-02-19T14:49:55.256Z,3.10
2019-02-19T14:52:45.961Z,3.30
2019-02-19T14:55:22.128Z,2.80
2019-02-19T14:58:08.754Z,3.05
2019-02-19T15:00:41.877Z,2.72
2019-02-19T15:03:34.786Z,3.30
2019-02-19T15:06:24.583Z,2.75
2019-02-19T15:08:59.189Z,2.85
2019-02-19T15:11:36.023Z,3.15
2019-02-19T15:14:06.687Z,2.98
2019-02-19T15:16:36.873Z,2.90
2019-02-19T15:19:19.714Z,3.30
2019-02-19T15:21:50.935Z,3.20
2019-02-19T15:24:39.603Z,3.72
2019-02-19T15:27:13.758Z,3.77
2019-02-19T15:29:50.828Z,2.72
2019-02-19T15:32:37.357Z,3.98
2019-02-19T15:35:10.803Z,3.92
2019-02-19T15:37:53.116Z,3.37
2019-02-19T15:40:39.241Z,2.55
2019-02-19T15:43:25.373Z,2.83
2019-02-19T15:45:58.157Z,2.60
2019-02-19T15:48:37.171Z,2.30
2019-02-19T15:51:23.876Z,2.20
2019-02-19T15:53:53.978Z,2.40
2019-02-19T15:56:36.283Z,1.77
2019-02-19T15:59:21.178Z,1.45
2019-02-19T16:01:53.735Z,1.80
2019-02-19T16:04:23.905Z,1.63
2019-02-19T16:06:55.524Z,1.82
2019-02-19T16:09:37.379Z,1.50
2019-02-19T16:12:22.692Z,1.97
2019-02-19T16:14:55.539Z,2.10
2019-02-19T16:17:29.930Z,2.00
2019-02-19T16:20:00.284Z,2.15
2019-02-19T16:22:36.152Z,2.02
2019-02-19T16:25:26.501Z,1.98
2019-02-19T16:28:14.680Z,2.33
2019-02-19T16:30:44.872Z,2.72
2019-02-19T16:33:18.560Z,1.92
2019-02-19T16:36:13.035Z,2.27
2019-02-19T16:41:21.470Z,2.22
2019-02-19T16:44:00.602Z,2.08
2019-02-19T16:46:37.413Z,2.42
2019-02-19T16:49:10.664Z,2.52
2019-02-19T16:51:41.022Z,2.35
2019-02-19T16:54:16.609Z,2.22
2019-02-19T16:56:46.714Z,3.20
2019-02-19T16:59:32.031Z,2.87
2019-02-19T17:02:11.076Z,2.75
2019-02-19T17:04:43.707Z,3.90
2019-02-19T17:07:15.055Z,2.95
2019-02-19T17:09:51.155Z,2.42
2019-02-19T17:12:37.163Z,3.35
2019-02-19T17:15:23.193Z,2.72
2019-02-19T17:17:57.311Z,3.12
2019-02-19T17:20:45.449Z,4.50
2019-02-19T17:23:18.384Z,4.28
2019-02-19T17:25:52.314Z,4.15
2019-02-19T17:28:26.945Z,4.10
2019-02-19T17:31:02.005Z,4.47
2019-02-19T17:33:32.209Z,4.33
2019-02-19T17:36:18.872Z,4.33
2019-02-19T17:38:54.282Z,4.20
2019-02-19T17:41:41.237Z,4.37
2019-02-19T17:44:14.665Z,4.05
2019-02-19T17:47:05.065Z,5.25
2019-02-19T17:49:35.743Z,4.20
2019-02-19T17:52:18.378Z,3.87
2019-02-19T17:54:54.259Z,4.28
2019-02-19T17:57:30.180Z,5.15
2019-02-19T18:00:02.988Z,4.67
2019-02-19T18:02:34.723Z,4.28
2019-02-19T18:05:07.121Z,4.85
2019-02-19T18:07:43.556Z,5.15
2019-02-19T18:10:37.045Z,4.97
2019-02-19T18:13:09.660Z,4.25
2019-02-19T18:15:45.544Z,4.70
2019-02-19T18:18:33.773Z,5.05
2019-02-19T18:21:03.620Z,4.55
2019-02-19T18:23:33.580Z,5.40
2019-02-19T18:26:02.595Z,4.47
2019-02-19T18:28:37.633Z,5.50
2019-02-19T18:31:19.858Z,4.83
2019-02-19T18:33:50.027Z,5.60
2019-02-19T18:36:18.612Z,4.50
2019-02-19T18:38:47.156Z,5.50
2019-02-19T18:41:18.100Z,5.20
2019-02-19T18:43:46.612Z,6.12
2019-02-19T18:46:15.067Z,5.25
2019-02-19T18:48:43.708Z,5.62
2019-02-19T18:51:13.292Z,4.53
2019-02-19T18:53:41.742Z,5.70
2019-02-19T18:56:10.207Z,5.03
2019-02-19T18:58:38.827Z,5.40
2019-02-19T19:01:08.639Z,5.42
2019-02-19T19:03:37.542Z,5.05
2019-02-19T19:06:07.618Z,5.60
2019-02-19T19:08:37.028Z,4.87
2019-02-19T19:11:05.528Z,5.42
2019-02-19T19:13:34.059Z,4.30
2019-02-19T19:16:02.716Z,4.40
2019-02-19T19:18:32.081Z,4.45
2019-02-19T19:21:07.734Z,4.75
2019-02-19T19:23:31.544Z,4.72
2019-02-19T19:26:00.032Z,4.45
2019-02-19T19:28:28.589Z,4.72
2019-02-19T19:30:57.047Z,4.12
2019-02-19T19:33:25.498Z,4.30
2019-02-19T19:35:55.699Z,3.83
2019-02-19T19:38:24.310Z,5.25
2019-02-19T19:40:53.288Z,4.05
2019-02-19T19:43:21.773Z,4.85
2019-02-19T19:45:50.237Z,4.90
2019-02-19T19:48:20.580Z,5.43
2019-02-19T19:50:49.119Z,4.72
2019-02-19T19:53:17.676Z,5.65
2019-02-19T19:55:46.211Z,5.40
2019-02-19T19:58:19.865Z,5.30
2019-02-19T20:03:16.087Z,5.15
2019-02-19T20:05:44.587Z,5.67
2019-02-19T20:08:13.095Z,5.80
2019-02-19T20:10:41.602Z,6.55
2019-02-19T20:13:10.131Z,5.30
2019-02-19T20:15:38.647Z,5.50
2019-02-19T20:18:07.170Z,5.55
2019-02-19T20:20:35.716Z,5.60
2019-02-19T20:23:07.000Z,5.08
2019-02-19T20:25:35.240Z,5.55
2019-02-19T20:28:04.817Z,6.15
2019-02-19T20:30:35.029Z,5.92
2019-02-19T20:33:04.886Z,5.45
2019-02-19T20:35:33.434Z,6.35
2019-02-19T20:38:01.936Z,6.37
2019-02-19T20:40:30.460Z,6.12
2019-02-19T20:42:59.097Z,5.78
2019-02-19T20:45:27.625Z,6.42
2019-02-19T20:47:57.222Z,5.97
2019-02-19T20:50:26.027Z,6.95
2019-02-19T20:52:54.552Z,7.17
2019-02-19T20:55:23.123Z,6.70
2019-02-19T20:57:53.510Z,7.45
2019-02-19T21:00:22.033Z,6.95
2019-02-19T21:02:50.551Z,7.33
2019-02-19T21:05:19.113Z,6.87
2019-02-19T21:07:52.522Z,7.20
2019-02-19T21:10:21.415Z,7.12
2019-02-19T21:12:49.896Z,8.23
2019-02-19T21:15:18.440Z,7.97
2019-02-19T21:17:46.958Z,8.10
2019-02-19T21:20:16.986Z,8.23
2019-02-19T21:22:45.521Z,8.50
2019-02-19T21:25:14.051Z,8.30
2019-02-19T21:27:42.653Z,7.97
2019-02-19T21:30:17.293Z,8.53
2019-02-19T21:32:45.793Z,8.63
2019-02-19T21:35:14.331Z,8.60
2019-02-19T21:37:44.541Z,8.73
2019-02-19T21:40:14.775Z,8.95
2019-02-19T21:42:43.457Z,9.30
2019-02-19T21:45:13.717Z,8.68
2019-02-19T21:47:44.183Z,8.75
2019-02-19T21:50:15.524Z,8.43
2019-02-19T21:52:55.814Z,8.00
2019-02-19T21:55:24.283Z,8.45
2019-02-19T21:57:52.818Z,7.95
2019-02-19T22:00:22.635Z,7.60
2019-02-19T22:02:52.045Z,7.50
2019-02-19T22:05:20.591Z,7.10
2019-02-19T22:07:49.304Z,7.08
2019-02-19T22:10:17.834Z,6.72
2019-02-19T22:12:46.441Z,7.10
2019-02-19T22:15:15.568Z,7.33
2019-02-19T22:17:44.032Z,7.20
2019-02-19T22:20:22.880Z,8.17
2019-02-19T22:22:52.000Z,6.42
2019-02-19T22:25:20.496Z,6.62
2019-02-19T22:27:49.787Z,6.05
2019-02-19T22:30:21.244Z,6.33
2019-02-19T22:32:52.750Z,6.33
2019-02-19T22:35:23.445Z,6.22
2019-02-19T22:37:51.958Z,6.33
2019-02-19T22:40:20.442Z,7.30
2019-02-19T22:42:49.331Z,6.70
2019-02-19T22:45:17.860Z,8.15
2019-02-19T22:47:53.209Z,6.85
2019-02-19T22:50:18.142Z,7.15
2019-02-19T22:52:46.602Z,6.72
2019-02-19T22:55:19.458Z,7.15
2019-02-19T22:57:48.784Z,7.47
2019-02-19T23:00:44.133Z,7.37
2019-02-19T23:03:14.194Z,7.90
2019-02-19T23:05:43.878Z,7.85
2019-02-19T23:08:12.404Z,7.10
2019-02-19T23:10:40.948Z,7.60
2019-02-19T23:13:09.422Z,7.85
2019-02-19T23:15:40.842Z,7.85
2019-02-19T23:18:10.193Z,7.70
2019-02-19T23:20:59.537Z,7.08
2019-02-19T23:23:29.588Z,7.42
2019-02-19T23:25:58.714Z,7.97
2019-02-19T23:28:27.429Z,8.00
2019-02-19T23:30:57.448Z,7.30
2019-02-19T23:33:25.973Z,7.40
2019-02-19T23:36:02.076Z,7.62
2019-02-19T23:38:37.191Z,6.92
2019-02-19T23:41:07.247Z,7.65
2019-02-19T23:43:35.718Z,6.50
2019-02-19T23:46:05.104Z,7.65
2019-02-19T23:48:33.730Z,7.35
2019-02-19T23:51:02.205Z,7.60
2019-02-19T23:53:30.741Z,7.28
2019-02-19T23:55:59.197Z,8.28
2019-02-19T23:58:28.783Z,7.00
